sensor_id;sensor_type;location;lat;lon;timestamp;P1;durP1;ratioP1;P2;durP2;ratioP2
31438;SDS011;18062;48.872;9.220;2022-08-11T00:00:21;102.83;;;96.20;;
31438;SDS011;18062;48.872;9.220;2022-08-11T00:02:57;106.87;;;100.33;;
31438;SDS011;18062;48.872;9.220;2022-08-11T00:05:28;108.13;;;101.43;;
31438;SDS011;18062;48.872;9.220;2022-08-11T00:07:55;90.87;;;85.37;;
31438;SDS011;18062;48.872;9.220;2022-08-11T00:10:25;108.07;;;101.17;;
31438;SDS011;18062;48.872;9.220;2022-08-11T00:13:01;113.57;;;106.87;;
31438;SDS011;18062;48.872;9.220;2022-08-11T00:15:36;121.90;;;115.23;;
31438;SDS011;18062;48.872;9.220;2022-08-11T00:18:03;115.07;;;108.07;;
31438;SDS011;18062;48.872;9.220;2022-08-11T00:20:30;124.53;;;117.03;;
31438;SDS011;18062;48.872;9.220;2022-08-11T00:23:00;110.60;;;104.13;;
31438;SDS011;18062;48.872;9.220;2022-08-11T00:25:28;126.80;;;119.27;;
31438;SDS011;18062;48.872;9.220;2022-08-11T00:27:54;83.60;;;78.63;;
31438;SDS011;18062;48.872;9.220;2022-08-11T00:30:20;114.97;;;108.07;;
31438;SDS011;18062;48.872;9.220;2022-08-11T00:32:54;110.10;;;103.53;;
31438;SDS011;18062;48.872;9.220;2022-08-11T00:35:23;122.70;;;115.00;;
31438;SDS011;18062;48.872;9.220;2022-08-11T00:37:51;107.33;;;101.03;;
31438;SDS011;18062;48.872;9.220;2022-08-11T00:40:25;108.13;;;102.33;;
31438;SDS011;18062;48.872;9.220;2022-08-11T00:43:00;115.13;;;108.20;;
31438;SDS011;18062;48.872;9.220;2022-08-11T00:45:38;117.47;;;109.53;;
31438;SDS011;18062;48.872;9.220;2022-08-11T01:03:31;151.30;;;141.90;;
31438;SDS011;18062;48.872;9.220;2022-08-11T01:06:20;133.70;;;126.10;;
31438;SDS011;18062;48.872;9.220;2022-08-11T01:09:15;160.50;;;151.00;;
31438;SDS011;18062;48.872;9.220;2022-08-11T01:19:55;173.30;;;163.70;;
31438;SDS011;18062;48.872;9.220;2022-08-11T01:35:15;150.77;;;142.57;;
31438;SDS011;18062;48.872;9.220;2022-08-11T01:58:33;141.63;;;132.80;;
31438;SDS011;18062;48.872;9.220;2022-08-11T02:01:26;170.43;;;160.10;;
31438;SDS011;18062;48.872;9.220;2022-08-11T02:03:51;177.00;;;166.87;;
31438;SDS011;18062;48.872;9.220;2022-08-11T02:12:17;207.27;;;195.53;;
31438;SDS011;18062;48.872;9.220;2022-08-11T02:20:20;204.53;;;192.10;;
31438;SDS011;18062;48.872;9.220;2022-08-11T02:28:34;218.20;;;205.37;;
31438;SDS011;18062;48.872;9.220;2022-08-11T02:31:12;196.03;;;183.47;;
31438;SDS011;18062;48.872;9.220;2022-08-11T02:36:44;216.63;;;203.60;;
31438;SDS011;18062;48.872;9.220;2022-08-11T02:39:13;196.30;;;184.57;;
31438;SDS011;18062;48.872;9.220;2022-08-11T02:41:55;224.90;;;212.00;;
31438;SDS011;18062;48.872;9.220;2022-08-11T02:49:51;217.27;;;205.30;;
31438;SDS011;18062;48.872;9.220;2022-08-11T02:57:42;250.47;;;235.30;;
31438;SDS011;18062;48.872;9.220;2022-08-11T03:00:13;210.97;;;199.27;;
31438;SDS011;18062;48.872;9.220;2022-08-11T03:08:00;243.30;;;228.87;;
31438;SDS011;18062;48.872;9.220;2022-08-11T03:13:37;290.63;;;274.20;;
31438;SDS011;18062;48.872;9.220;2022-08-11T03:16:31;322.50;;;302.30;;
31438;SDS011;18062;48.872;9.220;2022-08-11T03:19:18;268.30;;;252.70;;
31438;SDS011;18062;48.872;9.220;2022-08-11T03:21:50;274.27;;;257.23;;
31438;SDS011;18062;48.872;9.220;2022-08-11T03:24:23;263.43;;;247.33;;
31438;SDS011;18062;48.872;9.220;2022-08-11T03:32:00;267.60;;;250.40;;
31438;SDS011;18062;48.872;9.220;2022-08-11T03:34:27;271.53;;;255.73;;
31438;SDS011;18062;48.872;9.220;2022-08-11T04:03:00;329.00;;;309.87;;
31438;SDS011;18062;48.872;9.220;2022-08-11T04:16:08;378.10;;;354.60;;
31438;SDS011;18062;48.872;9.220;2022-08-11T04:18:49;355.80;;;335.43;;
31438;SDS011;18062;48.872;9.220;2022-08-11T04:26:27;360.67;;;338.63;;
31438;SDS011;18062;48.872;9.220;2022-08-11T04:29:13;364.43;;;342.93;;
31438;SDS011;18062;48.872;9.220;2022-08-11T04:56:48;354.57;;;334.30;;
31438;SDS011;18062;48.872;9.220;2022-08-11T05:05:14;311.77;;;293.50;;
31438;SDS011;18062;48.872;9.220;2022-08-11T05:13:09;235.93;;;221.57;;
31438;SDS011;18062;48.872;9.220;2022-08-11T05:15:56;265.33;;;249.20;;
31438;SDS011;18062;48.872;9.220;2022-08-11T05:18:50;245.63;;;230.63;;
31438;SDS011;18062;48.872;9.220;2022-08-11T05:21:35;249.73;;;234.67;;
31438;SDS011;18062;48.872;9.220;2022-08-11T05:24:36;242.57;;;228.57;;
31438;SDS011;18062;48.872;9.220;2022-08-11T05:27:31;220.40;;;207.60;;
31438;SDS011;18062;48.872;9.220;2022-08-11T05:30:16;216.27;;;203.67;;
31438;SDS011;18062;48.872;9.220;2022-08-11T05:33:05;180.63;;;170.40;;
31438;SDS011;18062;48.872;9.220;2022-08-11T05:35:57;179.50;;;167.40;;
31438;SDS011;18062;48.872;9.220;2022-08-11T05:38:25;150.33;;;141.17;;
31438;SDS011;18062;48.872;9.220;2022-08-11T05:41:11;157.73;;;148.53;;
31438;SDS011;18062;48.872;9.220;2022-08-11T05:43:59;132.57;;;124.67;;
31438;SDS011;18062;48.872;9.220;2022-08-11T05:46:45;122.57;;;114.17;;
31438;SDS011;18062;48.872;9.220;2022-08-11T05:49:30;128.10;;;120.20;;
31438;SDS011;18062;48.872;9.220;2022-08-11T05:52:16;129.33;;;120.80;;
31438;SDS011;18062;48.872;9.220;2022-08-11T05:55:04;92.33;;;86.33;;
31438;SDS011;18062;48.872;9.220;2022-08-11T05:57:56;85.57;;;79.37;;
31438;SDS011;18062;48.872;9.220;2022-08-11T06:00:24;84.93;;;79.10;;
31438;SDS011;18062;48.872;9.220;2022-08-11T06:02:51;80.97;;;75.10;;
31438;SDS011;18062;48.872;9.220;2022-08-11T06:05:19;81.17;;;75.10;;
31438;SDS011;18062;48.872;9.220;2022-08-11T06:07:48;73.50;;;68.77;;
31438;SDS011;18062;48.872;9.220;2022-08-11T06:10:23;79.83;;;74.60;;
31438;SDS011;18062;48.872;9.220;2022-08-11T06:12:51;75.43;;;70.53;;
31438;SDS011;18062;48.872;9.220;2022-08-11T06:15:19;62.40;;;58.77;;
31438;SDS011;18062;48.872;9.220;2022-08-11T06:17:46;63.90;;;60.20;;
31438;SDS011;18062;48.872;9.220;2022-08-11T06:20:15;68.23;;;63.97;;
31438;SDS011;18062;48.872;9.220;2022-08-11T06:22:43;60.87;;;56.43;;
31438;SDS011;18062;48.872;9.220;2022-08-11T06:25:10;69.10;;;64.27;;
31438;SDS011;18062;48.872;9.220;2022-08-11T06:27:37;65.83;;;61.13;;
31438;SDS011;18062;48.872;9.220;2022-08-11T06:30:04;71.50;;;67.07;;
31438;SDS011;18062;48.872;9.220;2022-08-11T06:32:37;66.93;;;63.23;;
31438;SDS011;18062;48.872;9.220;2022-08-11T06:35:16;67.93;;;63.00;;
31438;SDS011;18062;48.872;9.220;2022-08-11T06:43:02;71.10;;;65.40;;
31438;SDS011;18062;48.872;9.220;2022-08-11T06:47:59;78.27;;;73.27;;
31438;SDS011;18062;48.872;9.220;2022-08-11T06:50:27;58.20;;;54.50;;
31438;SDS011;18062;48.872;9.220;2022-08-11T06:53:14;59.47;;;54.83;;
31438;SDS011;18062;48.872;9.220;2022-08-11T06:55:41;73.33;;;68.33;;
31438;SDS011;18062;48.872;9.220;2022-08-11T06:58:31;54.80;;;49.97;;
31438;SDS011;18062;48.872;9.220;2022-08-11T07:01:19;68.67;;;63.80;;
31438;SDS011;18062;48.872;9.220;2022-08-11T07:03:55;54.40;;;50.93;;
31438;SDS011;18062;48.872;9.220;2022-08-11T07:06:32;59.13;;;54.60;;
31438;SDS011;18062;48.872;9.220;2022-08-11T07:12:11;62.13;;;57.93;;
31438;SDS011;18062;48.872;9.220;2022-08-11T07:15:01;62.27;;;57.90;;
31438;SDS011;18062;48.872;9.220;2022-08-11T07:17:48;58.87;;;55.17;;
31438;SDS011;18062;48.872;9.220;2022-08-11T07:20:36;61.30;;;56.33;;
31438;SDS011;18062;48.872;9.220;2022-08-11T07:23:21;58.70;;;54.70;;
31438;SDS011;18062;48.872;9.220;2022-08-11T07:26:14;51.63;;;47.33;;
31438;SDS011;18062;48.872;9.220;2022-08-11T07:29:00;50.23;;;45.30;;
31438;SDS011;18062;48.872;9.220;2022-08-11T07:34:15;58.17;;;53.03;;
31438;SDS011;18062;48.872;9.220;2022-08-11T07:36:41;62.17;;;56.60;;
31438;SDS011;18062;48.872;9.220;2022-08-11T07:39:21;54.60;;;50.27;;
31438;SDS011;18062;48.872;9.220;2022-08-11T07:41:48;54.27;;;50.20;;
31438;SDS011;18062;48.872;9.220;2022-08-11T07:44:14;53.00;;;48.27;;
31438;SDS011;18062;48.872;9.220;2022-08-11T07:46:42;47.93;;;43.97;;
31438;SDS011;18062;48.872;9.220;2022-08-11T07:49:28;53.70;;;49.20;;
31438;SDS011;18062;48.872;9.220;2022-08-11T07:52:14;49.80;;;45.70;;
31438;SDS011;18062;48.872;9.220;2022-08-11T07:55:19;51.07;;;46.13;;
31438;SDS011;18062;48.872;9.220;2022-08-11T07:57:46;51.50;;;46.90;;
31438;SDS011;18062;48.872;9.220;2022-08-11T08:00:44;58.43;;;52.50;;
31438;SDS011;18062;48.872;9.220;2022-08-11T08:03:29;49.73;;;45.90;;
31438;SDS011;18062;48.872;9.220;2022-08-11T08:06:15;53.17;;;49.17;;
31438;SDS011;18062;48.872;9.220;2022-08-11T08:09:00;54.30;;;48.87;;
31438;SDS011;18062;48.872;9.220;2022-08-11T08:11:45;51.30;;;46.07;;
31438;SDS011;18062;48.872;9.220;2022-08-11T08:14:31;60.85;;;48.80;;
31438;SDS011;18062;48.872;9.220;2022-08-11T08:17:16;44.47;;;39.45;;
31438;SDS011;18062;48.872;9.220;2022-08-11T08:20:01;50.22;;;44.75;;
31438;SDS011;18062;48.872;9.220;2022-08-11T08:22:28;59.63;;;42.97;;
31438;SDS011;18062;48.872;9.220;2022-08-11T08:24:54;49.53;;;43.58;;
31438;SDS011;18062;48.872;9.220;2022-08-11T08:27:22;55.67;;;46.00;;
31438;SDS011;18062;48.872;9.220;2022-08-11T08:29:49;47.00;;;39.03;;
31438;SDS011;18062;48.872;9.220;2022-08-11T08:32:38;54.78;;;37.28;;
31438;SDS011;18062;48.872;9.220;2022-08-11T08:35:05;54.30;;;41.50;;
31438;SDS011;18062;48.872;9.220;2022-08-11T08:37:32;62.20;;;41.10;;
31438;SDS011;18062;48.872;9.220;2022-08-11T08:39:58;75.82;;;41.38;;
31438;SDS011;18062;48.872;9.220;2022-08-11T08:42:34;64.95;;;39.28;;
31438;SDS011;18062;48.872;9.220;2022-08-11T08:45:06;59.70;;;39.70;;
31438;SDS011;18062;48.872;9.220;2022-08-11T08:47:37;51.47;;;38.15;;
31438;SDS011;18062;48.872;9.220;2022-08-11T08:50:04;62.90;;;33.50;;
31438;SDS011;18062;48.872;9.220;2022-08-11T08:52:33;50.58;;;37.85;;
31438;SDS011;18062;48.872;9.220;2022-08-11T08:55:04;57.28;;;29.60;;
31438;SDS011;18062;48.872;9.220;2022-08-11T08:57:32;73.03;;;36.95;;
31438;SDS011;18062;48.872;9.220;2022-08-11T08:59:58;79.10;;;31.23;;
31438;SDS011;18062;48.872;9.220;2022-08-11T09:02:25;76.60;;;31.98;;
31438;SDS011;18062;48.872;9.220;2022-08-11T09:04:51;59.95;;;25.98;;
31438;SDS011;18062;48.872;9.220;2022-08-11T09:07:19;71.18;;;30.90;;
31438;SDS011;18062;48.872;9.220;2022-08-11T09:09:51;79.45;;;34.97;;
31438;SDS011;18062;48.872;9.220;2022-08-11T09:12:18;55.83;;;30.63;;
31438;SDS011;18062;48.872;9.220;2022-08-11T09:14:46;66.00;;;30.60;;
31438;SDS011;18062;48.872;9.220;2022-08-11T09:17:28;46.08;;;30.40;;
31438;SDS011;18062;48.872;9.220;2022-08-11T09:20:07;60.72;;;27.27;;
31438;SDS011;18062;48.872;9.220;2022-08-11T09:22:34;45.65;;;28.48;;
31438;SDS011;18062;48.872;9.220;2022-08-11T09:25:20;50.38;;;32.97;;
31438;SDS011;18062;48.872;9.220;2022-08-11T09:28:09;65.57;;;32.20;;
31438;SDS011;18062;48.872;9.220;2022-08-11T09:30:35;40.72;;;29.58;;
31438;SDS011;18062;48.872;9.220;2022-08-11T09:33:03;27.80;;;23.73;;
31438;SDS011;18062;48.872;9.220;2022-08-11T09:35:30;30.77;;;27.67;;
31438;SDS011;18062;48.872;9.220;2022-08-11T09:37:57;28.80;;;24.27;;
31438;SDS011;18062;48.872;9.220;2022-08-11T09:40:44;20.10;;;18.15;;
31438;SDS011;18062;48.872;9.220;2022-08-11T09:43:11;18.38;;;16.98;;
31438;SDS011;18062;48.872;9.220;2022-08-11T09:45:57;21.70;;;20.55;;
31438;SDS011;18062;48.872;9.220;2022-08-11T09:48:24;18.13;;;17.27;;
31438;SDS011;18062;48.872;9.220;2022-08-11T09:50:52;24.10;;;22.70;;
31438;SDS011;18062;48.872;9.220;2022-08-11T09:53:19;15.82;;;15.00;;
31438;SDS011;18062;48.872;9.220;2022-08-11T09:55:45;18.25;;;17.25;;
31438;SDS011;18062;48.872;9.220;2022-08-11T09:58:12;21.02;;;19.83;;
31438;SDS011;18062;48.872;9.220;2022-08-11T10:00:38;20.30;;;19.30;;
31438;SDS011;18062;48.872;9.220;2022-08-11T10:03:06;19.05;;;18.13;;
31438;SDS011;18062;48.872;9.220;2022-08-11T10:05:34;17.17;;;16.33;;
31438;SDS011;18062;48.872;9.220;2022-08-11T10:08:20;24.55;;;23.27;;
31438;SDS011;18062;48.872;9.220;2022-08-11T10:10:47;25.83;;;24.52;;
31438;SDS011;18062;48.872;9.220;2022-08-11T10:13:17;24.05;;;22.73;;
31438;SDS011;18062;48.872;9.220;2022-08-11T10:15:45;28.95;;;27.48;;
31438;SDS011;18062;48.872;9.220;2022-08-11T10:18:13;29.13;;;27.38;;
31438;SDS011;18062;48.872;9.220;2022-08-11T10:20:59;25.48;;;23.95;;
31438;SDS011;18062;48.872;9.220;2022-08-11T10:23:26;31.48;;;29.40;;
31438;SDS011;18062;48.872;9.220;2022-08-11T10:26:11;34.10;;;31.85;;
31438;SDS011;18062;48.872;9.220;2022-08-11T10:28:56;31.35;;;29.35;;
31438;SDS011;18062;48.872;9.220;2022-08-11T10:31:24;34.50;;;32.25;;
31438;SDS011;18062;48.872;9.220;2022-08-11T10:34:10;44.63;;;41.50;;
31438;SDS011;18062;48.872;9.220;2022-08-11T10:36:40;31.95;;;29.77;;
31438;SDS011;18062;48.872;9.220;2022-08-11T10:39:08;33.15;;;31.08;;
31438;SDS011;18062;48.872;9.220;2022-08-11T10:41:35;37.42;;;34.85;;
31438;SDS011;18062;48.872;9.220;2022-08-11T10:44:21;36.65;;;33.95;;
31438;SDS011;18062;48.872;9.220;2022-08-11T10:46:47;48.75;;;45.17;;
31438;SDS011;18062;48.872;9.220;2022-08-11T10:49:33;49.75;;;46.33;;
31438;SDS011;18062;48.872;9.220;2022-08-11T10:51:59;50.42;;;46.33;;
31438;SDS011;18062;48.872;9.220;2022-08-11T10:54:44;50.20;;;46.20;;
31438;SDS011;18062;48.872;9.220;2022-08-11T10:57:29;64.50;;;59.50;;
31438;SDS011;18062;48.872;9.220;2022-08-11T11:00:14;82.07;;;76.13;;
31438;SDS011;18062;48.872;9.220;2022-08-11T11:02:44;76.40;;;70.20;;
31438;SDS011;18062;48.872;9.220;2022-08-11T11:05:29;66.70;;;61.67;;
31438;SDS011;18062;48.872;9.220;2022-08-11T11:10:21;79.82;;;73.47;;
31438;SDS011;18062;48.872;9.220;2022-08-11T11:12:50;77.57;;;71.03;;
31438;SDS011;18062;48.872;9.220;2022-08-11T11:15:36;85.40;;;78.03;;
31438;SDS011;18062;48.872;9.220;2022-08-11T11:18:25;130.02;;;121.05;;
31438;SDS011;18062;48.872;9.220;2022-08-11T11:21:09;122.47;;;112.38;;
31438;SDS011;18062;48.872;9.220;2022-08-11T11:26:26;145.88;;;134.82;;
31438;SDS011;18062;48.872;9.220;2022-08-11T11:36:46;168.88;;;155.05;;
31438;SDS011;18062;48.872;9.220;2022-08-11T11:39:16;209.95;;;192.32;;
31438;SDS011;18062;48.872;9.220;2022-08-11T11:41:42;196.48;;;180.50;;
31438;SDS011;18062;48.872;9.220;2022-08-11T11:44:08;211.65;;;193.60;;
31438;SDS011;18062;48.872;9.220;2022-08-11T11:46:37;200.68;;;182.85;;
31438;SDS011;18062;48.872;9.220;2022-08-11T11:49:03;298.77;;;269.75;;
31438;SDS011;18062;48.872;9.220;2022-08-11T11:51:33;268.13;;;242.85;;
31438;SDS011;18062;48.872;9.220;2022-08-11T11:53:59;281.98;;;258.80;;
31438;SDS011;18062;48.872;9.220;2022-08-11T11:56:29;274.45;;;247.65;;
31438;SDS011;18062;48.872;9.220;2022-08-11T11:58:55;314.42;;;281.10;;
31438;SDS011;18062;48.872;9.220;2022-08-11T12:01:41;341.63;;;305.65;;
31438;SDS011;18062;48.872;9.220;2022-08-11T12:04:07;485.95;;;432.40;;
31438;SDS011;18062;48.872;9.220;2022-08-11T12:06:35;456.30;;;399.08;;
31438;SDS011;18062;48.872;9.220;2022-08-11T12:09:02;530.80;;;473.63;;
31438;SDS011;18062;48.872;9.220;2022-08-11T12:11:29;434.27;;;385.67;;
31438;SDS011;18062;48.872;9.220;2022-08-11T12:14:15;476.08;;;423.27;;
31438;SDS011;18062;48.872;9.220;2022-08-11T12:16:42;619.42;;;493.40;;
31438;SDS011;18062;48.872;9.220;2022-08-11T12:19:13;683.55;;;538.47;;
31438;SDS011;18062;48.872;9.220;2022-08-11T12:21:41;652.67;;;509.77;;
31438;SDS011;18062;48.872;9.220;2022-08-11T12:24:30;605.92;;;504.83;;
31438;SDS011;18062;48.872;9.220;2022-08-11T12:27:15;852.65;;;607.50;;
31438;SDS011;18062;48.872;9.220;2022-08-11T12:29:49;748.03;;;568.70;;
31438;SDS011;18062;48.872;9.220;2022-08-11T12:32:15;624.80;;;490.85;;
31438;SDS011;18062;48.872;9.220;2022-08-11T12:34:42;770.58;;;573.70;;
31438;SDS011;18062;48.872;9.220;2022-08-11T12:37:08;1006.60;;;675.92;;
31438;SDS011;18062;48.872;9.220;2022-08-11T12:39:37;692.47;;;526.22;;
31438;SDS011;18062;48.872;9.220;2022-08-11T12:42:23;763.97;;;578.55;;
31438;SDS011;18062;48.872;9.220;2022-08-11T12:45:09;896.60;;;606.83;;
31438;SDS011;18062;48.872;9.220;2022-08-11T12:48:00;959.63;;;648.38;;
31438;SDS011;18062;48.872;9.220;2022-08-11T12:50:46;1074.22;;;684.78;;
31438;SDS011;18062;48.872;9.220;2022-08-11T12:53:34;1034.18;;;662.03;;
31438;SDS011;18062;48.872;9.220;2022-08-11T12:56:03;1052.35;;;663.83;;
31438;SDS011;18062;48.872;9.220;2022-08-11T12:58:50;1208.78;;;759.85;;
31438;SDS011;18062;48.872;9.220;2022-08-11T13:01:16;1235.78;;;766.97;;
31438;SDS011;18062;48.872;9.220;2022-08-11T13:04:01;1254.75;;;818.03;;
31438;SDS011;18062;48.872;9.220;2022-08-11T13:06:46;1218.30;;;761.00;;
31438;SDS011;18062;48.872;9.220;2022-08-11T13:09:12;1197.20;;;768.88;;
31438;SDS011;18062;48.872;9.220;2022-08-11T13:11:38;1089.53;;;714.17;;
31438;SDS011;18062;48.872;9.220;2022-08-11T13:14:24;1285.85;;;826.45;;
31438;SDS011;18062;48.872;9.220;2022-08-11T13:16:51;1416.75;;;888.67;;
31438;SDS011;18062;48.872;9.220;2022-08-11T13:19:36;1513.28;;;934.28;;
31438;SDS011;18062;48.872;9.220;2022-08-11T13:22:02;1536.80;;;934.42;;
31438;SDS011;18062;48.872;9.220;2022-08-11T13:24:31;1526.75;;;949.47;;
31438;SDS011;18062;48.872;9.220;2022-08-11T13:27:00;1598.78;;;937.22;;
31438;SDS011;18062;48.872;9.220;2022-08-11T13:29:27;1544.30;;;912.38;;
31438;SDS011;18062;48.872;9.220;2022-08-11T13:31:54;1594.97;;;933.28;;
31438;SDS011;18062;48.872;9.220;2022-08-11T13:34:23;1550.38;;;924.30;;
31438;SDS011;18062;48.872;9.220;2022-08-11T13:36:51;1448.13;;;918.15;;
31438;SDS011;18062;48.872;9.220;2022-08-11T13:39:17;1460.95;;;923.50;;
31438;SDS011;18062;48.872;9.220;2022-08-11T13:41:44;1579.32;;;934.40;;
31438;SDS011;18062;48.872;9.220;2022-08-11T13:44:12;1503.45;;;923.08;;
31438;SDS011;18062;48.872;9.220;2022-08-11T13:46:39;1562.18;;;933.72;;
31438;SDS011;18062;48.872;9.220;2022-08-11T13:49:07;1572.15;;;962.40;;
31438;SDS011;18062;48.872;9.220;2022-08-11T13:51:33;1538.90;;;944.78;;
31438;SDS011;18062;48.872;9.220;2022-08-11T13:54:07;1489.15;;;940.45;;
31438;SDS011;18062;48.872;9.220;2022-08-11T13:56:34;1548.80;;;979.13;;
31438;SDS011;18062;48.872;9.220;2022-08-11T13:59:04;1572.65;;;970.70;;
31438;SDS011;18062;48.872;9.220;2022-08-11T14:01:31;1555.28;;;963.83;;
31438;SDS011;18062;48.872;9.220;2022-08-11T14:03:59;1538.60;;;966.50;;
31438;SDS011;18062;48.872;9.220;2022-08-11T14:06:28;1399.05;;;894.08;;
31438;SDS011;18062;48.872;9.220;2022-08-11T14:08:55;1404.55;;;922.30;;
31438;SDS011;18062;48.872;9.220;2022-08-11T14:11:21;1426.43;;;908.85;;
31438;SDS011;18062;48.872;9.220;2022-08-11T14:14:18;1475.15;;;941.80;;
31438;SDS011;18062;48.872;9.220;2022-08-11T14:16:46;1388.03;;;933.58;;
31438;SDS011;18062;48.872;9.220;2022-08-11T14:19:13;1382.93;;;886.67;;
31438;SDS011;18062;48.872;9.220;2022-08-11T14:21:43;1458.70;;;917.40;;
31438;SDS011;18062;48.872;9.220;2022-08-11T14:24:28;1392.80;;;886.63;;
31438;SDS011;18062;48.872;9.220;2022-08-11T14:26:54;1469.22;;;921.45;;
31438;SDS011;18062;48.872;9.220;2022-08-11T14:29:21;1541.35;;;965.25;;
31438;SDS011;18062;48.872;9.220;2022-08-11T14:34:16;1553.97;;;976.15;;
31438;SDS011;18062;48.872;9.220;2022-08-11T14:36:46;1468.20;;;946.05;;
31438;SDS011;18062;48.872;9.220;2022-08-11T14:39:15;1486.65;;;957.10;;
31438;SDS011;18062;48.872;9.220;2022-08-11T14:41:47;1550.90;;;986.00;;
31438;SDS011;18062;48.872;9.220;2022-08-11T14:44:33;1557.15;;;962.85;;
31438;SDS011;18062;48.872;9.220;2022-08-11T14:47:18;1577.97;;;972.60;;
31438;SDS011;18062;48.872;9.220;2022-08-11T14:49:44;1613.07;;;995.50;;
31438;SDS011;18062;48.872;9.220;2022-08-11T14:52:12;1537.85;;;972.95;;
31438;SDS011;18062;48.872;9.220;2022-08-11T14:54:39;1536.72;;;952.53;;
31438;SDS011;18062;48.872;9.220;2022-08-11T14:57:25;1489.35;;;965.13;;
31438;SDS011;18062;48.872;9.220;2022-08-11T14:59:52;1518.47;;;930.70;;
31438;SDS011;18062;48.872;9.220;2022-08-11T15:02:19;1513.13;;;947.17;;
31438;SDS011;18062;48.872;9.220;2022-08-11T15:05:05;1476.65;;;936.90;;
31438;SDS011;18062;48.872;9.220;2022-08-11T15:07:31;1368.22;;;881.40;;
31438;SDS011;18062;48.872;9.220;2022-08-11T15:09:58;1439.22;;;900.10;;
31438;SDS011;18062;48.872;9.220;2022-08-11T15:12:25;1386.15;;;876.95;;
31438;SDS011;18062;48.872;9.220;2022-08-11T15:14:51;1309.55;;;785.80;;
31438;SDS011;18062;48.872;9.220;2022-08-11T15:17:37;1411.70;;;841.10;;
31438;SDS011;18062;48.872;9.220;2022-08-11T15:20:05;1291.18;;;786.05;;
31438;SDS011;18062;48.872;9.220;2022-08-11T15:23:00;1111.32;;;709.03;;
31438;SDS011;18062;48.872;9.220;2022-08-11T15:25:45;1213.65;;;767.25;;
31438;SDS011;18062;48.872;9.220;2022-08-11T15:28:17;985.80;;;695.53;;
31438;SDS011;18062;48.872;9.220;2022-08-11T15:31:03;917.03;;;672.47;;
31438;SDS011;18062;48.872;9.220;2022-08-11T15:34:05;747.95;;;605.70;;
31438;SDS011;18062;48.872;9.220;2022-08-11T15:36:54;867.15;;;649.53;;
31438;SDS011;18062;48.872;9.220;2022-08-11T15:39:44;1026.63;;;721.67;;
31438;SDS011;18062;48.872;9.220;2022-08-11T15:42:29;1101.25;;;744.17;;
31438;SDS011;18062;48.872;9.220;2022-08-11T15:45:14;818.67;;;626.95;;
31438;SDS011;18062;48.872;9.220;2022-08-11T15:48:06;898.90;;;677.60;;
31438;SDS011;18062;48.872;9.220;2022-08-11T15:50:33;874.78;;;673.25;;
31438;SDS011;18062;48.872;9.220;2022-08-11T15:53:02;789.45;;;636.65;;
31438;SDS011;18062;48.872;9.220;2022-08-11T15:55:28;780.67;;;621.88;;
31438;SDS011;18062;48.872;9.220;2022-08-11T15:57:58;500.90;;;447.85;;
31438;SDS011;18062;48.872;9.220;2022-08-11T16:00:45;577.70;;;515.50;;
31438;SDS011;18062;48.872;9.220;2022-08-11T16:03:31;522.30;;;466.58;;
31438;SDS011;18062;48.872;9.220;2022-08-11T16:06:19;621.50;;;527.83;;
31438;SDS011;18062;48.872;9.220;2022-08-11T16:08:45;471.30;;;422.52;;
31438;SDS011;18062;48.872;9.220;2022-08-11T16:11:12;420.05;;;381.45;;
31438;SDS011;18062;48.872;9.220;2022-08-11T16:13:38;392.02;;;356.10;;
31438;SDS011;18062;48.872;9.220;2022-08-11T16:16:05;304.23;;;280.45;;
31438;SDS011;18062;48.872;9.220;2022-08-11T16:18:42;263.48;;;242.00;;
31438;SDS011;18062;48.872;9.220;2022-08-11T16:21:21;300.67;;;279.25;;
31438;SDS011;18062;48.872;9.220;2022-08-11T16:23:49;247.30;;;229.63;;
31438;SDS011;18062;48.872;9.220;2022-08-11T16:26:17;242.90;;;224.10;;
31438;SDS011;18062;48.872;9.220;2022-08-11T16:28:46;170.13;;;158.48;;
31438;SDS011;18062;48.872;9.220;2022-08-11T16:31:14;161.50;;;150.60;;
31438;SDS011;18062;48.872;9.220;2022-08-11T16:33:40;163.75;;;152.45;;
31438;SDS011;18062;48.872;9.220;2022-08-11T16:36:07;136.57;;;127.95;;
31438;SDS011;18062;48.872;9.220;2022-08-11T16:38:55;159.13;;;148.38;;
31438;SDS011;18062;48.872;9.220;2022-08-11T16:41:23;129.52;;;120.80;;
31438;SDS011;18062;48.872;9.220;2022-08-11T16:44:09;104.40;;;97.88;;
31438;SDS011;18062;48.872;9.220;2022-08-11T16:46:54;75.60;;;70.65;;
31438;SDS011;18062;48.872;9.220;2022-08-11T16:49:27;56.97;;;53.28;;
31438;SDS011;18062;48.872;9.220;2022-08-11T16:51:55;39.53;;;36.95;;
31438;SDS011;18062;48.872;9.220;2022-08-11T16:54:21;45.75;;;43.15;;
31438;SDS011;18062;48.872;9.220;2022-08-11T16:56:51;32.60;;;30.90;;
31438;SDS011;18062;48.872;9.220;2022-08-11T16:59:18;30.75;;;29.13;;
31438;SDS011;18062;48.872;9.220;2022-08-11T17:01:46;29.77;;;28.17;;
31438;SDS011;18062;48.872;9.220;2022-08-11T17:04:30;28.02;;;26.75;;
31438;SDS011;18062;48.872;9.220;2022-08-11T17:07:19;28.17;;;26.92;;
31438;SDS011;18062;48.872;9.220;2022-08-11T17:10:06;31.20;;;29.73;;
31438;SDS011;18062;48.872;9.220;2022-08-11T17:12:50;26.45;;;25.05;;
31438;SDS011;18062;48.872;9.220;2022-08-11T17:15:37;31.30;;;29.70;;
31438;SDS011;18062;48.872;9.220;2022-08-11T17:18:24;29.58;;;28.17;;
31438;SDS011;18062;48.872;9.220;2022-08-11T17:24:22;37.70;;;35.83;;
31438;SDS011;18062;48.872;9.220;2022-08-11T17:26:51;28.05;;;26.65;;
31438;SDS011;18062;48.872;9.220;2022-08-11T17:31:55;30.85;;;29.00;;
31438;SDS011;18062;48.872;9.220;2022-08-11T17:34:44;31.25;;;29.50;;
31438;SDS011;18062;48.872;9.220;2022-08-11T17:37:30;27.92;;;26.45;;
31438;SDS011;18062;48.872;9.220;2022-08-11T17:39:57;29.60;;;28.05;;
31438;SDS011;18062;48.872;9.220;2022-08-11T17:42:24;36.20;;;34.13;;
31438;SDS011;18062;48.872;9.220;2022-08-11T17:45:10;24.90;;;23.75;;
31438;SDS011;18062;48.872;9.220;2022-08-11T17:47:56;26.70;;;25.23;;
31438;SDS011;18062;48.872;9.220;2022-08-11T17:50:41;26.30;;;24.75;;
31438;SDS011;18062;48.872;9.220;2022-08-11T17:53:09;28.58;;;27.05;;
31438;SDS011;18062;48.872;9.220;2022-08-11T17:55:54;33.17;;;30.92;;
31438;SDS011;18062;48.872;9.220;2022-08-11T17:58:39;33.13;;;31.27;;
31438;SDS011;18062;48.872;9.220;2022-08-11T18:01:24;32.53;;;30.48;;
31438;SDS011;18062;48.872;9.220;2022-08-11T18:03:51;35.00;;;32.83;;
31438;SDS011;18062;48.872;9.220;2022-08-11T18:06:18;30.42;;;28.23;;
31438;SDS011;18062;48.872;9.220;2022-08-11T18:08:45;36.15;;;34.10;;
31438;SDS011;18062;48.872;9.220;2022-08-11T18:11:32;34.58;;;32.55;;
31438;SDS011;18062;48.872;9.220;2022-08-11T18:14:17;34.60;;;31.95;;
31438;SDS011;18062;48.872;9.220;2022-08-11T18:17:02;37.10;;;34.17;;
31438;SDS011;18062;48.872;9.220;2022-08-11T18:19:47;39.45;;;37.05;;
31438;SDS011;18062;48.872;9.220;2022-08-11T18:22:34;34.60;;;32.42;;
31438;SDS011;18062;48.872;9.220;2022-08-11T18:25:21;38.53;;;35.83;;